Time;durP1;ratioP1;P1;durP2;ratioP2;P2;SDS_P1;SDS_P2;PMS_P1;PMS_P2;Temp;Humidity;BMP_temperature;BMP_pressure;BME280_temperature;BME280_humidity;BME280_pressure;Samples;Min_cycle;Max_cycle;Signal;HPM_P1;HPM_P2
2021/03/16 00:00:06;;;;;;;;;;;;;;;;;;5038935;28;19919;-63
2021/03/16 00:02:31;;;;;;;;;;;;;;;;;;5047252;28;19955;-63
2021/03/16 00:04:57;;;;;;;;;;;;;;;;;;5036701;28;19909;-63
2021/03/16 00:07:22;;;;;;;;;;;;;;;;;;5033468;28;19913;-64
2021/03/16 00:09:47;;;;;;;;;;;;;;;;;;5037303;28;19909;-64
2021/03/16 00:12:12;;;;;;;;;;;;;;;;;;5039769;28;20330;-65
2021/03/16 00:14:37;;;;;;;;;;;;;;;;;;5055703;28;19964;-65
2021/03/16 00:17:02;;;;;;;;;;;;;;;;;;5040672;28;19963;-65
2021/03/16 00:19:27;;;;;;;;;;;;;;;;;;5037595;28;20362;-62
2021/03/16 00:21:52;;;;;;;;;;;;;;;;;;5036030;28;19940;-63
2021/03/16 00:24:18;;;;;;;;;;;;;;;;;;5038275;28;19955;-63
2021/03/16 00:26:43;;;;;;;;;;;;;;;;;;5045532;28;19944;-64
2021/03/16 00:29:08;;;;;;;;;;;;;;;;;;5051993;28;19956;-64
2021/03/16 00:31:33;;;;;;;;;;;;;;;;;;5035751;28;19955;-64
2021/03/16 00:33:58;;;;;;;;;;;;;;;;;;5041549;28;19948;-64
2021/03/16 00:36:23;;;;;;;;;;;;;;;;;;5050241;28;20294;-64
2021/03/16 00:38:48;;;;;;;;;;;;;;;;;;5048423;28;20383;-63
2021/03/16 00:41:13;;;;;;;;;;;;;;;;;;5040444;28;20348;-63
2021/03/16 00:43:38;;;;;;;;;;;;;;;;;;5048667;28;20291;-63
2021/03/16 00:46:03;;;;;;;;;;;;;;;;;;5037142;28;20355;-64
2021/03/16 00:48:29;;;;;;;;;;;;;;;;;;5043850;28;19912;-64
2021/03/16 00:50:54;;;;;;;;;;;;;;;;;;5035511;28;20003;-64
2021/03/16 00:53:19;;;;;;;;;;;;;;;;;;5042659;28;19967;-64
2021/03/16 00:55:44;;;;;;;;;;;;;;;;;;5041611;28;20127;-64
2021/03/16 00:58:09;;;;;;;;;;;;;;;;;;5041716;28;19905;-64
2021/03/16 01:00:34;;;;;;;;;;;;;;;;;;5040991;28;19917;-64
2021/03/16 01:02:59;;;;;;;;;;;;;;;;;;5042138;28;19923;-64
2021/03/16 01:05:24;;;;;;;;;;;;;;;;;;5052135;28;19909;-64
2021/03/16 01:07:49;;;;;;;;;;;;;;;;;;5053803;28;20330;-64
2021/03/16 01:10:15;;;;;;;;;;;;;;;;;;5053150;28;20006;-64
2021/03/16 01:12:40;;;;;;;;;;;;;;;;;;5035309;28;19991;-64
2021/03/16 01:15:05;;;;;;;;;;;;;;;;;;5035106;28;19917;-64
2021/03/16 01:17:30;;;;;;;;;;;;;;;;;;5038951;28;20253;-64
2021/03/16 01:19:55;;;;;;;;;;;;;;;;;;5034674;28;19909;-64
2021/03/16 01:22:20;;;;;;;;;;;;;;;;;;5043636;28;19908;-63
2021/03/16 01:24:45;;;;;;;;;;;;;;;;;;5050768;28;19923;-64
2021/03/16 01:27:10;;;;;;;;;;;;;;;;;;5032195;28;19909;-63
2021/03/16 01:29:36;;;;;;;;;;;;;;;;;;5041445;28;19909;-63
2021/03/16 01:32:01;;;;;;;;;;;;;;;;;;5050012;28;19917;-63
2021/03/16 01:34:26;;;;;;;;;;;;;;;;;;5049078;28;19909;-63
2021/03/16 01:36:51;;;;;;;;;;;;;;;;;;5045135;28;19916;-64
2021/03/16 01:39:16;;;;;;;;;;;;;;;;;;5034147;28;19909;-63
2021/03/16 01:41:41;;;;;;;;;;;;;;;;;;5038711;28;19909;-64
2021/03/16 01:44:06;;;;;;;;;;;;;;;;;;5053958;28;19905;-64
2021/03/16 01:46:31;;;;;;;;;;;;;;;;;;5051296;28;19917;-64
2021/03/16 01:48:56;;;;;;;;;;;;;;;;;;5038525;28;20294;-64
2021/03/16 01:51:21;;;;;;;;;;;;;;;;;;5043810;28;19955;-65
2021/03/16 01:53:47;;;;;;;;;;;;;;;;;;5041835;28;20338;-64
2021/03/16 01:56:12;;;;;;;;;;;;;;;;;;5031393;28;19913;-64
2021/03/16 01:58:37;;;;;;;;;;;;;;;;;;5039622;28;19916;-64
2021/03/16 02:01:02;;;;;;;;;;;;;;;;;;5035849;28;19920;-64
2021/03/16 02:03:27;;;;;;;;;;;;;;;;;;5050684;28;19908;-64
2021/03/16 02:05:52;;;;;;;;;;;;;;;;;;5031267;28;19905;-64
2021/03/16 02:08:17;;;;;;;;;;;;;;;;;;5035523;28;19905;-64
2021/03/16 02:10:43;;;;;;;;;;;;;;;;;;5032621;28;19916;-64
2021/03/16 02:13:08;;;;;;;;;;;;;;;;;;5039184;28;19961;-64
2021/03/16 02:15:33;;;;;;;;;;;;;;;;;;5031544;28;19923;-64
2021/03/16 02:17:58;;;;;;;;;;;;;;;;;;5040690;28;19916;-64
2021/03/16 02:20:23;;;;;;;;;;;;;;;;;;5035438;28;19909;-64
2021/03/16 02:22:48;;;;;;;;;;;;;;;;;;5033933;28;19916;-64
2021/03/16 02:25:13;;;;;;;;;;;;;;;;;;5034085;28;19932;-63
2021/03/16 02:27:38;;;;;;;;;;;;;;;;;;5037854;28;19913;-63
2021/03/16 02:30:04;;;;;;;;;;;;;;;;;;5038553;28;19931;-63
2021/03/16 02:32:35;;;;;;;;;;;;;;;;;;5110515;27;19997;-63
2021/03/16 02:35:02;;;;;;;;;;;;;;;;;;5104713;28;19951;-63
2021/03/16 02:37:27;;;;;;;;;;;;;;;;;;5122400;27;19962;-63
2021/03/16 02:39:52;;;;;;;;;;;;;;;;;;5101987;28;19912;-64
2021/03/16 02:42:17;;;;;;;;;;;;;;;;;;5090961;28;20268;-62
2021/03/16 02:44:42;;;;;;;;;;;;;;;;;;5094757;28;20337;-62
2021/03/16 02:47:07;;;;;;;;;;;;;;;;;;5107785;28;20351;-63
2021/03/16 02:49:33;;;;;;;;;;;;;;;;;;5105734;28;19908;-63
2021/03/16 02:51:58;;;;;;;;;;;;;;;;;;5090242;28;20275;-63
2021/03/16 02:54:23;;;;;;;;;;;;;;;;;;5089969;28;19961;-62
2021/03/16 02:56:48;;;;;;;;;;;;;;;;;;5089797;28;20298;-63
2021/03/16 02:59:13;;;;;;;;;;;;;;;;;;5092343;28;19912;-63
2021/03/16 03:01:38;;;;;;;;;;;;;;;;;;5090281;28;19981;-63
2021/03/16 03:04:03;;;;;;;;;;;;;;;;;;5090702;28;19916;-63
2021/03/16 03:06:28;;;;;;;;;;;;;;;;;;5099130;28;20041;-63
2021/03/16 03:08:54;;;;;;;;;;;;;;;;;;5108582;28;20023;-63
2021/03/16 03:11:19;;;;;;;;;;;;;;;;;;5092671;28;20387;-63
2021/03/16 03:13:44;;;;;;;;;;;;;;;;;;5092760;28;20287;-63
2021/03/16 03:16:09;;;;;;;;;;;;;;;;;;5086652;28;20323;-63
2021/03/16 03:18:34;;;;;;;;;;;;;;;;;;5095940;28;20341;-64
2021/03/16 03:20:59;;;;;;;;;;;;;;;;;;5111915;27;19987;-63
2021/03/16 03:23:24;;;;;;;;;;;;;;;;;;5069326;28;19959;-63
2021/03/16 03:25:49;;;;;;;;;;;;;;;;;;5086419;28;19912;-64
2021/03/16 03:28:14;;;;;;;;;;;;;;;;;;5109511;28;19912;-63
2021/03/16 03:30:40;;;;;;;;;;;;;;;;;;5103639;28;19920;-63
2021/03/16 03:33:05;;;;;;;;;;;;;;;;;;5108890;28;19934;-64
2021/03/16 03:35:30;;;;;;;;;;;;;;;;;;5105339;28;19908;-63
2021/03/16 03:37:55;;;;;;;;;;;;;;;;;;5108139;28;19919;-62
2021/03/16 03:40:20;;;;;;;;;;;;;;;;;;5101814;28;20048;-63
2021/03/16 03:42:45;;;;;;;;;;;;;;;;;;5096941;28;19912;-62
2021/03/16 03:45:10;;;;;;;;;;;;;;;;;;5075350;28;19912;-63
2021/03/16 03:47:35;;;;;;;;;;;;;;;;;;5074127;28;19912;-63
2021/03/16 03:50:01;;;;;;;;;;;;;;;;;;5087586;28;19919;-63
2021/03/16 03:52:26;;;;;;;;;;;;;;;;;;5085906;28;19923;-64
2021/03/16 03:54:51;;;;;;;;;;;;;;;;;;5077360;28;19920;-63
2021/03/16 03:57:16;;;;;;;;;;;;;;;;;;5072646;28;19909;-65
2021/03/16 03:59:41;;;;;;;;;;;;;;;;;;5083181;28;19920;-63
2021/03/16 04:02:06;;;;;;;;;;;;;;;;;;5081149;28;20018;-63
2021/03/16 04:04:31;;;;;;;;;;;;;;;;;;5093233;28;19908;-64
2021/03/16 04:06:56;;;;;;;;;;;;;;;;;;5072560;28;20003;-63
2021/03/16 04:09:22;;;;;;;;;;;;;;;;;;5074855;28;19995;-63
2021/03/16 04:11:47;;;;;;;;;;;;;;;;;;5088311;28;20018;-64
2021/03/16 04:14:12;;;;;;;;;;;;;;;;;;5085744;28;19958;-64
2021/03/16 04:16:37;;;;;;;;;;;;;;;;;;5090704;28;19916;-64
2021/03/16 04:19:02;;;;;;;;;;;;;;;;;;5089247;28;19912;-64
2021/03/16 04:21:27;;;;;;;;;;;;;;;;;;5075386;28;19913;-64
2021/03/16 04:23:52;;;;;;;;;;;;;;;;;;5078891;28;19912;-64
2021/03/16 04:26:17;;;;;;;;;;;;;;;;;;5084229;28;19913;-64
2021/03/16 04:28:42;;;;;;;;;;;;;;;;;;5073772;28;19909;-64
2021/03/16 04:31:08;;;;;;;;;;;;;;;;;;5074272;28;19927;-64
2021/03/16 04:33:33;;;;;;;;;;;;;;;;;;5079286;28;19919;-64
2021/03/16 04:35:58;;;;;;;;;;;;;;;;;;5090021;28;19984;-64
2021/03/16 04:38:24;;;;;;;;;;;;;;;;;;5082434;28;20054;-64
2021/03/16 04:40:49;;;;;;;;;;;;;;;;;;5074774;28;19995;-64
2021/03/16 04:43:14;;;;;;;;;;;;;;;;;;5073398;28;19912;-64
2021/03/16 04:45:39;;;;;;;;;;;;;;;;;;5071814;28;20191;-64
2021/03/16 04:48:04;;;;;;;;;;;;;;;;;;5074609;28;19916;-64
2021/03/16 04:50:29;;;;;;;;;;;;;;;;;;5079363;28;19962;-64
2021/03/16 04:52:54;;;;;;;;;;;;;;;;;;5082855;28;20009;-64
2021/03/16 04:55:20;;;;;;;;;;;;;;;;;;5089309;28;19912;-64
2021/03/16 04:57:45;;;;;;;;;;;;;;;;;;5080318;28;19913;-64
2021/03/16 05:00:10;;;;;;;;;;;;;;;;;;5081940;28;19919;-64
2021/03/16 05:02:35;;;;;;;;;;;;;;;;;;5073170;28;19909;-64
2021/03/16 05:05:00;;;;;;;;;;;;;;;;;;5074269;28;19908;-64
2021/03/16 05:07:25;;;;;;;;;;;;;;;;;;5076665;28;19964;-64
2021/03/16 05:09:50;;;;;;;;;;;;;;;;;;5079176;28;19924;-64
2021/03/16 05:12:16;;;;;;;;;;;;;;;;;;5083195;28;19976;-64
2021/03/16 05:14:41;;;;;;;;;;;;;;;;;;5089715;28;19912;-64
2021/03/16 05:17:06;;;;;;;;;;;;;;;;;;5086670;28;19918;-63
2021/03/16 05:19:31;;;;;;;;;;;;;;;;;;5080869;28;20007;-64
2021/03/16 05:21:56;;;;;;;;;;;;;;;;;;5077744;28;19995;-64
2021/03/16 05:24:21;;;;;;;;;;;;;;;;;;5080727;28;19916;-64
2021/03/16 05:26:46;;;;;;;;;;;;;;;;;;5079060;28;19966;-64
2021/03/16 05:29:11;;;;;;;;;;;;;;;;;;5075507;28;19913;-64
2021/03/16 05:31:36;;;;;;;;;;;;;;;;;;5078053;28;19927;-65
2021/03/16 05:34:02;;;;;;;;;;;;;;;;;;5091862;28;19969;-64
2021/03/16 05:36:27;;;;;;;;;;;;;;;;;;5082566;28;20260;-63
2021/03/16 05:38:52;;;;;;;;;;;;;;;;;;5077317;28;20011;-64
2021/03/16 05:41:17;;;;;;;;;;;;;;;;;;5082322;28;19920;-64
2021/03/16 05:43:42;;;;;;;;;;;;;;;;;;5073573;28;19914;-64
2021/03/16 05:46:07;;;;;;;;;;;;;;;;;;5070320;28;19913;-64
2021/03/16 05:48:32;;;;;;;;;;;;;;;;;;5073455;28;19912;-64
2021/03/16 05:50:57;;;;;;;;;;;;;;;;;;5087967;28;20014;-63
2021/03/16 05:53:22;;;;;;;;;;;;;;;;;;5092291;28;20007;-63
2021/03/16 05:55:48;;;;;;;;;;;;;;;;;;5083032;28;20007;-63
2021/03/16 05:58:13;;;;;;;;;;;;;;;;;;5083199;28;20010;-64
2021/03/16 06:00:38;;;;;;;;;;;;;;;;;;5077737;28;19912;-64
2021/03/16 06:03:03;;;;;;;;;;;;;;;;;;5073467;28;19912;-65
2021/03/16 06:05:28;;;;;;;;;;;;;;;;;;5070497;28;20582;-64
2021/03/16 06:07:53;;;;;;;;;;;;;;;;;;5073740;28;19919;-65
2021/03/16 06:10:19;;;;;;;;;;;;;;;;;;5117808;27;19912;-65
2021/03/16 06:12:44;;;;;;;;;;;;;;;;;;5080520;28;19913;-64
2021/03/16 06:15:09;;;;;;;;;;;;;;;;;;5089271;28;19923;-64
2021/03/16 06:17:34;;;;;;;;;;;;;;;;;;5077979;28;19915;-65
2021/03/16 06:19:59;;;;;;;;;;;;;;;;;;5082357;28;19921;-65
2021/03/16 06:22:24;;;;;;;;;;;;;;;;;;5084048;28;19912;-65
2021/03/16 06:24:49;;;;;;;;;;;;;;;;;;5076899;28;19920;-65
2021/03/16 06:27:14;;;;;;;;;;;;;;;;;;5055659;28;20429;-65
2021/03/16 06:29:40;;;;;;;;;;;;;;;;;;5096089;28;19912;-64
2021/03/16 06:32:05;;;;;;;;;;;;;;;;;;5105478;28;19943;-65
2021/03/16 06:34:30;;;;;;;;;;;;;;;;;;5055375;28;19916;-65
2021/03/16 06:36:55;;;;;;;;;;;;;;;;;;5072711;28;19919;-65
2021/03/16 06:39:20;;;;;;;;;;;;;;;;;;5081197;28;19985;-65
2021/03/16 06:41:45;;;;;;;;;;;;;;;;;;5072484;28;19957;-64
2021/03/16 06:44:10;;;;;;;;;;;;;;;;;;5068439;28;20252;-64
2021/03/16 06:46:35;;;;;;;;;;;;;;;;;;5069049;28;19920;-64
2021/03/16 06:49:01;;;;;;;;;;;;;;;;;;5068118;28;19909;-64
2021/03/16 06:51:26;;;;;;;;;;;;;;;;;;5072506;28;19912;-64
2021/03/16 06:53:51;;;;;;;;;;;;;;;;;;5068189;28;19913;-64
2021/03/16 06:56:16;;;;;;;;;;;;;;;;;;5089288;28;19909;-65
2021/03/16 06:58:42;;;;;;;;;;;;;;;;;;5068637;28;19919;-64
2021/03/16 07:01:07;;;;;;;;;;;;;;;;;;5069620;28;19919;-65
2021/03/16 07:03:33;;;;;;;;;;;;;;;;;;5099773;28;20279;-64
2021/03/16 07:05:58;;;;;;;;;;;;;;;;;;5059599;28;19924;-64
2021/03/16 07:08:23;;;;;;;;;;;;;;;;;;5075786;28;19919;-64
2021/03/16 07:10:48;;;;;;;;;;;;;;;;;;5097239;28;19985;-63
2021/03/16 07:13:13;;;;;;;;;;;;;;;;;;5055136;28;19913;-62
2021/03/16 07:15:38;;;;;;;;;;;;;;;;;;5102063;28;20001;-64
2021/03/16 07:18:03;;;;;;;;;;;;;;;;;;5078815;28;19913;-65
2021/03/16 07:20:28;;;;;;;;;;;;;;;;;;5075424;28;19916;-65
2021/03/16 07:22:53;;;;;;;;;;;;;;;;;;5074679;28;19908;-65
2021/03/16 07:25:18;;;;;;;;;;;;;;;;;;5074943;28;19999;-65
2021/03/16 07:27:44;;;;;;;;;;;;;;;;;;5076847;28;21124;-65
2021/03/16 07:30:09;;;;;;;;;;;;;;;;;;5122584;27;19997;-64
2021/03/16 07:32:34;;;;;;;;;;;;;;;;;;5096233;28;19965;-64
2021/03/16 07:34:59;;;;;;;;;;;;;;;;;;5087695;28;19916;-64
2021/03/16 07:37:24;;;;;;;;;;;;;;;;;;5104552;28;20294;-63
2021/03/16 07:39:49;;;;;;;;;;;;;;;;;;5067705;28;20003;-64
2021/03/16 07:42:14;;;;;;;;;;;;;;;;;;5074705;28;19948;-65
2021/03/16 07:44:39;;;;;;;;;;;;;;;;;;5096199;28;20413;-63
2021/03/16 07:47:05;;;;;;;;;;;;;;;;;;5078663;28;20358;-64
2021/03/16 07:49:30;;;;;;;;;;;;;;;;;;5083754;28;20363;-65
2021/03/16 07:51:55;;;;;;;;;;;;;;;;;;5074377;28;20007;-65
2021/03/16 07:54:21;;;;;;;;;;;;;;;;;;5075277;28;20011;-65
2021/03/16 07:56:46;;;;;;;;;;;;;;;;;;5101368;27;19999;-64
2021/03/16 07:59:11;;;;;;;;;;;;;;;;;;5110254;27;19913;-64
2021/03/16 08:01:36;;;;;;;;;;;;;;;;;;5079470;28;19913;-64
2021/03/16 08:04:02;;;;;;;;;;;;;;;;;;5075306;28;19915;-64
2021/03/16 08:06:27;;;;;;;;;;;;;;;;;;5070782;28;19908;-64
2021/03/16 08:08:52;;;;;;;;;;;;;;;;;;5072149;28;19908;-63
2021/03/16 08:11:17;;;;;;;;;;;;;;;;;;5075783;28;20106;-64
2021/03/16 08:13:42;;;;;;;;;;;;;;;;;;5103333;28;19966;-64
2021/03/16 08:16:07;;;;;;;;;;;;;;;;;;5052301;28;19913;-63
2021/03/16 08:18:34;;;;;;;;;;;;;;;;;;5079768;28;19920;-64
2021/03/16 08:20:59;;;;;;;;;;;;;;;;;;5102147;27;19916;-64
2021/03/16 08:23:24;;;;;;;;;;;;;;;;;;5095011;28;19930;-64
2021/03/16 08:25:49;;;;;;;;;;;;;;;;;;5080194;28;19999;-63
2021/03/16 08:28:14;;;;;;;;;;;;;;;;;;5073173;28;20003;-64
2021/03/16 08:30:40;;;;;;;;;;;;;;;;;;5069910;28;21839;-63
2021/03/16 08:33:05;;;;;;;;;;;;;;;;;;5055012;28;19913;-64
2021/03/16 08:35:30;;;;;;;;;;;;;;;;;;5061212;28;19970;-64
2021/03/16 08:37:55;;;;;;;;;;;;;;;;;;5106642;28;19979;-65
2021/03/16 08:40:20;;;;;;;;;;;;;;;;;;5066242;28;20023;-63
2021/03/16 08:42:45;;;;;;;;;;;;;;;;;;5057310;28;19979;-63
2021/03/16 08:45:10;;;;;;;;;;;;;;;;;;5068860;28;19919;-64
2021/03/16 08:47:35;;;;;;;;;;;;;;;;;;5072343;28;19908;-65
2021/03/16 08:50:00;;;;;;;;;;;;;;;;;;5057493;28;19908;-64
2021/03/16 08:52:26;;;;;;;;;;;;;;;;;;5103926;28;20303;-65
2021/03/16 08:54:51;;;;;;;;;;;;;;;;;;5074246;28;19909;-65
2021/03/16 08:57:16;;;;;;;;;;;;;;;;;;5071273;28;19909;-64
2021/03/16 08:59:41;;;;;;;;;;;;;;;;;;5097808;27;19912;-64
2021/03/16 09:02:06;;;;;;;;;;;;;;;;;;5107097;28;19947;-65
2021/03/16 09:04:32;;;;;;;;;;;;;;;;;;5074000;28;20442;-65
2021/03/16 09:06:57;;;;;;;;;;;;;;;;;;5071118;28;19909;-65
2021/03/16 09:09:22;;;;;;;;;;;;;;;;;;5096384;27;19920;-65
2021/03/16 09:11:47;;;;;;;;;;;;;;;;;;5053841;28;19919;-64
2021/03/16 09:14:12;;;;;;;;;;;;;;;;;;5053825;28;19915;-65
2021/03/16 09:16:37;;;;;;;;;;;;;;;;;;5060500;28;20007;-65
2021/03/16 09:19:02;;;;;;;;;;;;;;;;;;5070484;28;19913;-65
2021/03/16 09:21:28;;;;;;;;;;;;;;;;;;5073794;28;19934;-65
2021/03/16 09:23:53;;;;;;;;;;;;;;;;;;5073586;28;19916;-65
2021/03/16 09:26:18;;;;;;;;;;;;;;;;;;5070713;28;19956;-65
2021/03/16 09:28:43;;;;;;;;;;;;;;;;;;5070789;28;21289;-65
2021/03/16 09:31:08;;;;;;;;;;;;;;;;;;5057618;28;20432;-65
2021/03/16 09:33:33;;;;;;;;;;;;;;;;;;5073171;28;19912;-65
2021/03/16 09:35:58;;;;;;;;;;;;;;;;;;5079854;28;19916;-64
2021/03/16 09:38:23;;;;;;;;;;;;;;;;;;5071965;28;19916;-65
2021/03/16 09:40:49;;;;;;;;;;;;;;;;;;5080492;28;19970;-64
2021/03/16 09:43:14;;;;;;;;;;;;;;;;;;5090875;28;20023;-64
2021/03/16 09:45:39;;;;;;;;;;;;;;;;;;5070378;28;19919;-64
2021/03/16 09:48:04;;;;;;;;;;;;;;;;;;5073325;28;19954;-65
2021/03/16 09:50:29;;;;;;;;;;;;;;;;;;5056212;28;19986;-64
2021/03/16 09:52:54;;;;;;;;;;;;;;;;;;5069900;28;20337;-65
2021/03/16 09:55:19;;;;;;;;;;;;;;;;;;5063372;28;20279;-66
2021/03/16 09:57:44;;;;;;;;;;;;;;;;;;5087082;28;20378;-65
2021/03/16 10:00:09;;;;;;;;;;;;;;;;;;5094544;28;19912;-65
2021/03/16 10:02:35;;;;;;;;;;;;;;;;;;5081541;28;19974;-65
2021/03/16 10:05:00;;;;;;;;;;;;;;;;;;5086599;28;19965;-65
2021/03/16 10:07:25;;;;;;;;;;;;;;;;;;5069025;28;19920;-65
2021/03/16 10:09:50;;;;;;;;;;;;;;;;;;5072582;28;19908;-64
2021/03/16 10:12:15;;;;;;;;;;;;;;;;;;5072504;28;19916;-64
2021/03/16 10:14:40;;;;;;;;;;;;;;;;;;5073053;28;19916;-65
2021/03/16 10:17:05;;;;;;;;;;;;;;;;;;5075361;28;19908;-65
2021/03/16 10:19:31;;;;;;;;;;;;;;;;;;5072916;28;19916;-65
2021/03/16 10:21:56;;;;;;;;;;;;;;;;;;5062482;28;20295;-65
2021/03/16 10:24:21;;;;;;;;;;;;;;;;;;5072519;28;20282;-65
2021/03/16 10:26:46;;;;;;;;;;;;;;;;;;5064974;28;20333;-65
2021/03/16 10:29:11;;;;;;;;;;;;;;;;;;5105349;28;20401;-64
2021/03/16 10:31:36;;;;;;;;;;;;;;;;;;5083238;28;20363;-65
2021/03/16 10:34:01;;;;;;;;;;;;;;;;;;5100266;28;19912;-65
2021/03/16 10:36:30;;;;;;;;;;;;;;;;;;5069808;28;19919;-64
2021/03/16 10:38:55;;;;;;;;;;;;;;;;;;5072397;28;19908;-64
2021/03/16 10:41:20;;;;;;;;;;;;;;;;;;5076180;28;20268;-64
2021/03/16 10:43:45;;;;;;;;;;;;;;;;;;5063748;28;19974;-65
2021/03/16 10:46:10;;;;;;;;;;;;;;;;;;5049548;28;20382;-65
2021/03/16 10:48:35;;;;;;;;;;;;;;;;;;5052705;28;20419;-66
2021/03/16 10:51:01;;;;;;;;;;;;;;;;;;5054263;28;20044;-65
2021/03/16 10:53:26;;;;;;;;;;;;;;;;;;5055687;28;19913;-66
2021/03/16 10:55:51;;;;;;;;;;;;;;;;;;5073764;28;19908;-64
2021/03/16 10:58:16;;;;;;;;;;;;;;;;;;5075218;28;19913;-64
2021/03/16 11:00:41;;;;;;;;;;;;;;;;;;5074659;28;19913;-64
2021/03/16 11:03:06;;;;;;;;;;;;;;;;;;5107258;28;19912;-65
2021/03/16 11:05:32;;;;;;;;;;;;;;;;;;5104156;28;20235;-65
2021/03/16 11:07:57;;;;;;;;;;;;;;;;;;5071199;28;19912;-65
2021/03/16 11:10:22;;;;;;;;;;;;;;;;;;5108555;28;20275;-65
2021/03/16 11:12:47;;;;;;;;;;;;;;;;;;5072434;28;20064;-64
2021/03/16 11:15:12;;;;;;;;;;;;;;;;;;5057466;28;20431;-65
2021/03/16 11:17:37;;;;;;;;;;;;;;;;;;5078881;28;19954;-65
2021/03/16 11:20:02;;;;;;;;;;;;;;;;;;5063139;28;19919;-65
2021/03/16 11:22:27;;;;;;;;;;;;;;;;;;5077091;28;19919;-65
2021/03/16 11:24:53;;;;;;;;;;;;;;;;;;5076561;28;19913;-64
2021/03/16 11:27:18;;;;;;;;;;;;;;;;;;5091847;28;19912;-64
2021/03/16 11:29:43;;;;;;;;;;;;;;;;;;5063448;28;19920;-64
2021/03/16 11:32:08;;;;;;;;;;;;;;;;;;5075696;28;19924;-65
2021/03/16 11:34:34;;;;;;;;;;;;;;;;;;5075180;28;20394;-65
2021/03/16 11:36:59;;;;;;;;;;;;;;;;;;5071281;28;19923;-65
2021/03/16 11:39:24;;;;;;;;;;;;;;;;;;5075297;28;19912;-65
2021/03/16 11:41:50;;;;;;;;;;;;;;;;;;5099310;27;19912;-65
2021/03/16 11:44:15;;;;;;;;;;;;;;;;;;5074305;28;19912;-64
2021/03/16 11:46:40;;;;;;;;;;;;;;;;;;5075694;28;19912;-64
2021/03/16 11:49:05;;;;;;;;;;;;;;;;;;5078757;28;19919;-64
2021/03/16 11:51:30;;;;;;;;;;;;;;;;;;5059218;28;19925;-65
2021/03/16 11:53:55;;;;;;;;;;;;;;;;;;5055394;28;19919;-65
2021/03/16 11:56:20;;;;;;;;;;;;;;;;;;5063181;28;19927;-64
2021/03/16 11:58:45;;;;;;;;;;;;;;;;;;5082554;28;19912;-64
2021/03/16 12:01:10;;;;;;;;;;;;;;;;;;5071354;28;19912;-66
2021/03/16 12:03:36;;;;;;;;;;;;;;;;;;5075568;28;19948;-64
2021/03/16 12:06:01;;;;;;;;;;;;;;;;;;5070120;28;20220;-64
2021/03/16 12:08:26;;;;;;;;;;;;;;;;;;5058190;28;19912;-64
2021/03/16 12:10:51;;;;;;;;;;;;;;;;;;5062812;28;19913;-64
2021/03/16 12:13:16;;;;;;;;;;;;;;;;;;5101707;27;19912;-64
2021/03/16 12:15:41;;;;;;;;;;;;;;;;;;5071296;28;20380;-64
2021/03/16 12:18:07;;;;;;;;;;;;;;;;;;5084795;28;19920;-64
2021/03/16 12:20:32;;;;;;;;;;;;;;;;;;5079371;28;20500;-65
2021/03/16 12:22:57;;;;;;;;;;;;;;;;;;5067530;28;20359;-65
2021/03/16 12:25:22;;;;;;;;;;;;;;;;;;5054589;28;19919;-65
2021/03/16 12:27:47;;;;;;;;;;;;;;;;;;5090626;28;19974;-65
2021/03/16 12:30:12;;;;;;;;;;;;;;;;;;5085906;28;19916;-65
2021/03/16 12:32:40;;;;;;;;;;;;;;;;;;5105684;28;19920;-64
2021/03/16 12:35:06;;;;;;;;;;;;;;;;;;5072896;28;19920;-65
2021/03/16 12:37:31;;;;;;;;;;;;;;;;;;5092465;28;19916;-65
2021/03/16 12:39:56;;;;;;;;;;;;;;;;;;5074262;28;19909;-65
2021/03/16 12:42:21;;;;;;;;;;;;;;;;;;5069714;28;19920;-65
2021/03/16 12:44:46;;;;;;;;;;;;;;;;;;5072803;28;19965;-65
2021/03/16 12:47:11;;;;;;;;;;;;;;;;;;5103895;28;19912;-65
2021/03/16 12:49:36;;;;;;;;;;;;;;;;;;5064336;28;19967;-65
2021/03/16 12:52:01;;;;;;;;;;;;;;;;;;5069210;28;19960;-65
2021/03/16 12:54:26;;;;;;;;;;;;;;;;;;5118287;27;19912;-65
2021/03/16 12:56:52;;;;;;;;;;;;;;;;;;5073968;28;19912;-64
2021/03/16 12:59:17;;;;;;;;;;;;;;;;;;5106395;28;19908;-64
2021/03/16 13:01:42;;;;;;;;;;;;;;;;;;5088058;28;19916;-65
2021/03/16 13:04:07;;;;;;;;;;;;;;;;;;5072898;28;19909;-65
2021/03/16 13:06:32;;;;;;;;;;;;;;;;;;5079803;28;19916;-65
2021/03/16 13:08:57;;;;;;;;;;;;;;;;;;5078628;28;19967;-65
2021/03/16 13:11:22;;;;;;;;;;;;;;;;;;5101309;27;19916;-65
2021/03/16 13:13:47;;;;;;;;;;;;;;;;;;5054180;28;19916;-65
2021/03/16 13:16:12;;;;;;;;;;;;;;;;;;5098328;28;19958;-65
2021/03/16 13:18:38;;;;;;;;;;;;;;;;;;5069688;28;19913;-64
2021/03/16 13:21:03;;;;;;;;;;;;;;;;;;5058009;28;19919;-64
2021/03/16 13:23:28;;;;;;;;;;;;;;;;;;5096330;28;19926;-64
2021/03/16 13:25:53;;;;;;;;;;;;;;;;;;5103550;28;19915;-64
2021/03/16 13:28:18;;;;;;;;;;;;;;;;;;5068040;28;20007;-64
2021/03/16 13:30:43;;;;;;;;;;;;;;;;;;5085528;28;20004;-64
2021/03/16 13:33:08;;;;;;;;;;;;;;;;;;5091557;28;20142;-64
2021/03/16 13:35:33;;;;;;;;;;;;;;;;;;5090235;27;20008;-64
2021/03/16 13:37:58;;;;;;;;;;;;;;;;;;5073484;28;20181;-65
2021/03/16 13:40:24;;;;;;;;;;;;;;;;;;5105462;28;19955;-64
2021/03/16 13:42:49;;;;;;;;;;;;;;;;;;5101035;28;20031;-64
2021/03/16 13:45:14;;;;;;;;;;;;;;;;;;5061934;28;19920;-65
2021/03/16 13:47:39;;;;;;;;;;;;;;;;;;5096707;28;19917;-64
2021/03/16 13:50:04;;;;;;;;;;;;;;;;;;5098863;28;19916;-65
2021/03/16 13:52:29;;;;;;;;;;;;;;;;;;5105086;28;19931;-64
2021/03/16 13:54:54;;;;;;;;;;;;;;;;;;5061687;28;19917;-65
2021/03/16 13:57:19;;;;;;;;;;;;;;;;;;5053347;28;19921;-66
2021/03/16 13:59:45;;;;;;;;;;;;;;;;;;5098987;27;19935;-64
2021/03/16 14:02:10;;;;;;;;;;;;;;;;;;5063948;28;19912;-63
2021/03/16 14:04:35;;;;;;;;;;;;;;;;;;5053003;28;19912;-64
2021/03/16 14:07:00;;;;;;;;;;;;;;;;;;5049872;28;19909;-64
2021/03/16 14:09:25;;;;;;;;;;;;;;;;;;5062546;28;20011;-64
2021/03/16 14:11:50;;;;;;;;;;;;;;;;;;5099581;28;19959;-64
2021/03/16 14:14:15;;;;;;;;;;;;;;;;;;5098167;28;19951;-64
2021/03/16 14:16:40;;;;;;;;;;;;;;;;;;5059141;28;19912;-64
2021/03/16 14:19:05;;;;;;;;;;;;;;;;;;5067478;28;19912;-64
2021/03/16 14:21:31;;;;;;;;;;;;;;;;;;5071827;28;20063;-64
2021/03/16 14:23:56;;;;;;;;;;;;;;;;;;5059315;28;19974;-66
2021/03/16 14:26:21;;;;;;;;;;;;;;;;;;5056743;28;19912;-65
2021/03/16 14:28:46;;;;;;;;;;;;;;;;;;5075881;28;19920;-64
2021/03/16 14:31:11;;;;;;;;;;;;;;;;;;5068385;28;19955;-64
2021/03/16 14:33:36;;;;;;;;;;;;;;;;;;5061503;28;19919;-66
2021/03/16 14:36:01;;;;;;;;;;;;;;;;;;5069223;28;19913;-65
2021/03/16 14:38:27;;;;;;;;;;;;;;;;;;5071218;28;19920;-66
2021/03/16 14:40:52;;;;;;;;;;;;;;;;;;5109842;28;19912;-66
2021/03/16 14:43:18;;;;;;;;;;;;;;;;;;5079199;28;19928;-64
2021/03/16 14:45:43;;;;;;;;;;;;;;;;;;5063898;28;20519;-65
2021/03/16 14:48:09;;;;;;;;;;;;;;;;;;5078226;28;19912;-65
2021/03/16 14:50:34;;;;;;;;;;;;;;;;;;5063824;28;19918;-65
2021/03/16 14:52:59;;;;;;;;;;;;;;;;;;5069928;28;20452;-65
2021/03/16 14:55:26;;;;;;;;;;;;;;;;;;5080606;28;19914;-65
2021/03/16 14:57:51;;;;;;;;;;;;;;;;;;5074761;28;19939;-66
2021/03/16 15:00:16;;;;;;;;;;;;;;;;;;5056100;28;19960;-65
2021/03/16 15:02:41;;;;;;;;;;;;;;;;;;5084820;28;19916;-65
2021/03/16 15:05:06;;;;;;;;;;;;;;;;;;5052792;28;19909;-66
2021/03/16 15:07:31;;;;;;;;;;;;;;;;;;5067823;28;19909;-65
2021/03/16 15:09:56;;;;;;;;;;;;;;;;;;5062571;28;19917;-66
2021/03/16 15:12:21;;;;;;;;;;;;;;;;;;5078331;28;19916;-65
2021/03/16 15:14:46;;;;;;;;;;;;;;;;;;5053133;28;19920;-65
2021/03/16 15:17:11;;;;;;;;;;;;;;;;;;5055169;28;19913;-65
2021/03/16 15:19:37;;;;;;;;;;;;;;;;;;5059226;28;19927;-65
2021/03/16 15:22:02;;;;;;;;;;;;;;;;;;5072464;28;19944;-65
2021/03/16 15:24:27;;;;;;;;;;;;;;;;;;5072124;28;20546;-65
2021/03/16 15:26:52;;;;;;;;;;;;;;;;;;5096117;28;19996;-65
2021/03/16 15:29:18;;;;;;;;;;;;;;;;;;5066543;28;19932;-64
2021/03/16 15:31:43;;;;;;;;;;;;;;;;;;5058971;28;19921;-64
2021/03/16 15:34:08;;;;;;;;;;;;;;;;;;5099381;28;20381;-65
2021/03/16 15:36:33;;;;;;;;;;;;;;;;;;5085573;28;19908;-67
2021/03/16 15:38:58;;;;;;;;;;;;;;;;;;5072313;28;19955;-64
2021/03/16 15:41:23;;;;;;;;;;;;;;;;;;5080391;28;19950;-64
2021/03/16 15:43:50;;;;;;;;;;;;;;;;;;5078818;28;19963;-64
2021/03/16 15:46:15;;;;;;;;;;;;;;;;;;5072430;28;20323;-64
2021/03/16 15:48:40;;;;;;;;;;;;;;;;;;5074927;28;20342;-64
2021/03/16 15:51:05;;;;;;;;;;;;;;;;;;5075363;28;20364;-64
2021/03/16 15:53:30;;;;;;;;;;;;;;;;;;5102079;28;20376;-64
2021/03/16 15:55:55;;;;;;;;;;;;;;;;;;5082526;28;19919;-64
2021/03/16 15:58:20;;;;;;;;;;;;;;;;;;5091237;28;19916;-64
2021/03/16 16:00:45;;;;;;;;;;;;;;;;;;5078942;28;19912;-64
2021/03/16 16:03:11;;;;;;;;;;;;;;;;;;5081554;28;19940;-63
2021/03/16 16:05:36;;;;;;;;;;;;;;;;;;5088784;28;20399;-63
2021/03/16 16:08:01;;;;;;;;;;;;;;;;;;5085325;28;19951;-63
2021/03/16 16:10:26;;;;;;;;;;;;;;;;;;5084210;28;19956;-63
2021/03/16 16:12:51;;;;;;;;;;;;;;;;;;5092188;28;19938;-63
2021/03/16 16:15:16;;;;;;;;;;;;;;;;;;5079035;28;19973;-64
2021/03/16 16:17:41;;;;;;;;;;;;;;;;;;5057619;28;19924;-63
2021/03/16 16:20:07;;;;;;;;;;;;;;;;;;5052838;28;19920;-63
2021/03/16 16:22:32;;;;;;;;;;;;;;;;;;5083417;27;20015;-64
2021/03/16 16:24:57;;;;;;;;;;;;;;;;;;5072687;28;19912;-63
2021/03/16 16:27:22;;;;;;;;;;;;;;;;;;5078050;28;19980;-64
2021/03/16 16:29:47;;;;;;;;;;;;;;;;;;5094933;28;19912;-64